createdAt,value
2022-10-30T00:02:03.914Z,75
2022-10-30T00:04:35.682Z,75
2022-10-30T00:07:06.783Z,74
2022-10-30T00:09:37.386Z,73
2022-10-30T00:12:08.988Z,73
2022-10-30T00:14:40.379Z,73
2022-10-30T00:17:11.449Z,73
2022-10-30T00:19:42.462Z,73
2022-10-30T00:22:14.126Z,73
2022-10-30T00:24:45.670Z,73
2022-10-30T00:27:17.280Z,74
2022-10-30T00:29:48.473Z,74
2022-10-30T00:32:19.901Z,74
2022-10-30T00:34:51.145Z,74
2022-10-30T00:37:21.780Z,74
2022-10-30T00:39:53.562Z,74
2022-10-30T00:42:23.948Z,75
2022-10-30T00:44:55.132Z,75
2022-10-30T00:47:26.784Z,75
2022-10-30T00:49:58.399Z,75
2022-10-30T00:52:29.081Z,75
2022-10-30T00:55:00.308Z,75
2022-10-30T00:57:31.314Z,75
2022-10-30T01:00:07.911Z,75
2022-10-30T01:02:39.760Z,75
2022-10-30T01:07:42.764Z,75
2022-10-30T01:10:14.545Z,75
2022-10-30T01:12:46.139Z,75
2022-10-30T01:15:17.567Z,75
2022-10-30T01:17:48.495Z,75
2022-10-30T01:20:20.489Z,74
2022-10-30T01:22:52.089Z,74
2022-10-30T01:25:23.755Z,74
2022-10-30T01:27:55.292Z,74
2022-10-30T01:30:26.539Z,74
2022-10-30T01:32:58.569Z,74
2022-10-30T01:35:29.382Z,74
2022-10-30T01:38:00.642Z,74
2022-10-30T01:40:31.577Z,74
2022-10-30T01:43:03.119Z,74
2022-10-30T01:45:34.019Z,74
2022-10-30T01:48:05.668Z,74
2022-10-30T01:50:36.603Z,74
2022-10-30T01:53:08.138Z,74
2022-10-30T01:55:39.207Z,74
2022-10-30T01:58:11.481Z,74
2022-10-30T02:00:42.663Z,74
2022-10-30T02:03:14.115Z,74
2022-10-30T02:05:45.678Z,74
2022-10-30T02:08:15.500Z,75
2022-10-30T02:10:46.478Z,74
2022-10-30T02:13:17.842Z,74
2022-10-30T02:15:49.616Z,74
2022-10-30T02:18:20.832Z,74
2022-10-30T02:20:52.358Z,74
2022-10-30T02:23:24.507Z,74
2022-10-30T02:25:56.158Z,74
2022-10-30T02:28:27.403Z,74
2022-10-30T02:30:58.965Z,75
2022-10-30T02:33:29.564Z,75
2022-10-30T02:36:00.345Z,75
2022-10-30T02:38:31.406Z,75
2022-10-30T02:41:02.603Z,75
2022-10-30T02:43:33.728Z,74
2022-10-30T02:46:05.024Z,74
2022-10-30T02:48:36.224Z,73
2022-10-30T02:51:07.501Z,73
2022-10-30T02:53:39.244Z,73
2022-10-30T02:56:10.839Z,73
2022-10-30T02:58:42.335Z,73
2022-10-30T03:01:14.171Z,73
2022-10-30T03:03:45.070Z,74
2022-10-30T03:06:16.474Z,74
2022-10-30T03:08:47.939Z,74
2022-10-30T03:11:18.956Z,74
2022-10-30T03:13:50.421Z,75
2022-10-30T03:16:21.669Z,75
2022-10-30T03:18:53.603Z,75
2022-10-30T03:21:24.850Z,75
2022-10-30T03:23:56.400Z,75
2022-10-30T03:26:27.694Z,75
2022-10-30T03:28:58.736Z,75
2022-10-30T03:31:29.566Z,75
2022-10-30T03:34:01.062Z,75
2022-10-30T03:36:32.606Z,75
2022-10-30T03:39:03.562Z,75
2022-10-30T03:41:34.584Z,75
2022-10-30T03:44:06.292Z,75
2022-10-30T03:46:37.760Z,75
2022-10-30T03:49:08.895Z,74
2022-10-30T03:51:40.377Z,75
2022-10-30T03:54:11.888Z,75
2022-10-30T03:56:43.345Z,75
2022-10-30T03:59:14.466Z,75
2022-10-30T04:01:45.901Z,74
2022-10-30T04:04:17.183Z,74
2022-10-30T04:06:49.192Z,74
2022-10-30T04:09:20.524Z,74
2022-10-30T04:11:51.996Z,74
2022-10-30T04:14:23.759Z,74
2022-10-30T04:16:55.454Z,74
2022-10-30T04:19:26.364Z,74
2022-10-30T04:21:58.251Z,74
2022-10-30T04:24:29.638Z,74
2022-10-30T04:27:00.746Z,74
2022-10-30T04:29:32.633Z,74
2022-10-30T04:34:35.429Z,74
2022-10-30T04:37:06.792Z,74
2022-10-30T04:39:40.934Z,74
2022-10-30T04:42:09.654Z,74
2022-10-30T04:44:42.457Z,74
2022-10-30T04:47:13.782Z,74
2022-10-30T04:49:44.996Z,74
2022-10-30T04:52:15.663Z,75
2022-10-30T04:54:47.576Z,75
2022-10-30T04:57:19.111Z,75
2022-10-30T04:59:50.295Z,76
2022-10-30T05:02:21.577Z,76
2022-10-30T05:04:53.066Z,76
2022-10-30T05:07:24.406Z,76
2022-10-30T05:09:55.396Z,76
2022-10-30T05:12:25.986Z,76
2022-10-30T05:14:56.830Z,76
2022-10-30T05:17:27.828Z,76
2022-10-30T05:19:59.855Z,76
2022-10-30T05:22:30.560Z,76
2022-10-30T05:25:02.490Z,76
2022-10-30T05:27:34.217Z,75
2022-10-30T05:30:05.657Z,75
2022-10-30T05:32:36.387Z,75
2022-10-30T05:35:07.748Z,75
2022-10-30T05:37:39.172Z,75
2022-10-30T05:40:10.620Z,75
2022-10-30T05:42:42.223Z,76
2022-10-30T05:45:13.696Z,76
2022-10-30T05:47:44.826Z,76
2022-10-30T05:50:16.620Z,75
2022-10-30T05:52:48.309Z,75
2022-10-30T05:55:19.931Z,75
2022-10-30T05:57:50.511Z,75
2022-10-30T06:00:21.210Z,74
2022-10-30T06:02:52.724Z,74
2022-10-30T06:05:24.016Z,74
2022-10-30T06:07:55.404Z,74
2022-10-30T06:10:26.370Z,74
2022-10-30T06:12:58.037Z,74
2022-10-30T06:15:28.468Z,74
2022-10-30T06:17:59.570Z,74
2022-10-30T06:20:30.354Z,74
2022-10-30T06:23:01.890Z,74
2022-10-30T06:25:33.245Z,74
2022-10-30T06:28:03.090Z,74
2022-10-30T06:30:34.156Z,73
2022-10-30T06:33:04.520Z,73
2022-10-30T06:35:34.936Z,73
2022-10-30T06:38:05.653Z,73
2022-10-30T06:40:36.994Z,73
2022-10-30T06:43:08.532Z,73
2022-10-30T06:45:39.323Z,73
2022-10-30T06:48:10.221Z,72
2022-10-30T06:50:41.437Z,72
2022-10-30T06:53:12.254Z,72
2022-10-30T06:55:41.967Z,72
2022-10-30T06:58:13.520Z,72
2022-10-30T07:00:45.093Z,73
2022-10-30T07:03:16.392Z,73
2022-10-30T07:05:47.644Z,73
2022-10-30T07:08:18.726Z,73
2022-10-30T07:10:49.608Z,73
2022-10-30T07:13:20.832Z,72
2022-10-30T07:15:51.266Z,72
2022-10-30T07:18:22.003Z,73
2022-10-30T07:20:53.892Z,72
2022-10-30T07:23:25.292Z,72
2022-10-30T07:25:59.567Z,72
2022-10-30T07:28:27.320Z,73
2022-10-30T07:30:59.333Z,73
2022-10-30T07:33:30.880Z,73
2022-10-30T07:36:02.082Z,73
2022-10-30T07:38:32.922Z,73
2022-10-30T07:41:04.185Z,73
2022-10-30T07:43:35.219Z,73
2022-10-30T07:46:07.287Z,73
2022-10-30T07:48:38.558Z,73
2022-10-30T07:51:09.605Z,73
2022-10-30T07:53:40.503Z,73
2022-10-30T07:56:11.952Z,73
2022-10-30T07:58:45.529Z,73
2022-10-30T08:01:14.406Z,73
2022-10-30T08:03:46.653Z,73
2022-10-30T08:06:19.026Z,73
2022-10-30T08:08:49.528Z,73
2022-10-30T08:11:21.064Z,73
2022-10-30T08:13:52.463Z,73
2022-10-30T08:16:23.729Z,73
2022-10-30T08:18:55.644Z,73
2022-10-30T08:21:26.413Z,73
2022-10-30T08:23:57.433Z,73
2022-10-30T08:26:29.331Z,73
2022-10-30T08:29:00.420Z,73
2022-10-30T08:31:32.080Z,73
2022-10-30T08:34:04.261Z,74
2022-10-30T08:36:35.373Z,73
2022-10-30T08:39:06.630Z,73
2022-10-30T08:41:38.078Z,73
2022-10-30T08:44:10.003Z,72
2022-10-30T08:46:42.401Z,73
2022-10-30T08:49:13.947Z,73
2022-10-30T08:51:45.134Z,72
2022-10-30T08:54:16.553Z,72
2022-10-30T08:56:47.480Z,71
2022-10-30T08:59:21.087Z,71
2022-10-30T09:01:49.609Z,71
2022-10-30T09:04:21.209Z,71
2022-10-30T09:06:53.014Z,71
2022-10-30T09:09:24.747Z,71
2022-10-30T09:11:56.835Z,71
2022-10-30T09:14:28.443Z,70
2022-10-30T09:17:00.152Z,70
2022-10-30T09:19:31.242Z,70
2022-10-30T09:22:02.533Z,70
2022-10-30T09:24:33.840Z,69
2022-10-30T09:27:05.126Z,69
2022-10-30T09:29:36.454Z,69
2022-10-30T09:32:07.431Z,68
2022-10-30T09:34:38.580Z,68
2022-10-30T09:37:09.888Z,67
2022-10-30T09:39:41.544Z,67
2022-10-30T09:42:13.292Z,67
2022-10-30T09:44:48.706Z,66
2022-10-30T09:47:19.421Z,66
2022-10-30T09:49:47.165Z,66
2022-10-30T09:52:18.639Z,66
2022-10-30T09:54:49.735Z,65
2022-10-30T09:57:20.953Z,64
2022-10-30T09:59:52.400Z,64
2022-10-30T10:02:25.162Z,64
2022-10-30T10:04:56.357Z,63
2022-10-30T10:07:28.808Z,63
2022-10-30T10:10:01.538Z,63
2022-10-30T10:12:32.602Z,63
2022-10-30T10:15:06.028Z,63
2022-10-30T10:17:37.266Z,62
2022-10-30T10:20:08.602Z,62
2022-10-30T10:22:39.682Z,60
2022-10-30T10:25:11.528Z,59
2022-10-30T10:27:42.751Z,59
2022-10-30T10:30:14.071Z,60
2022-10-30T10:32:45.134Z,60
2022-10-30T10:35:16.568Z,60
2022-10-30T10:37:47.810Z,60
2022-10-30T10:40:19.160Z,60
2022-10-30T10:42:50.508Z,60
2022-10-30T10:45:21.691Z,60
2022-10-30T10:47:53.039Z,59
2022-10-30T10:50:24.085Z,59
2022-10-30T10:52:55.831Z,58
2022-10-30T10:55:27.269Z,58
2022-10-30T10:57:58.901Z,58
2022-10-30T11:00:30.888Z,58
2022-10-30T11:03:02.862Z,58
2022-10-30T11:05:33.522Z,57
2022-10-30T11:08:04.917Z,57
2022-10-30T11:10:36.753Z,57
2022-10-30T11:13:07.603Z,57
2022-10-30T11:15:38.976Z,57
2022-10-30T11:18:10.613Z,57
2022-10-30T11:20:42.007Z,57
2022-10-30T11:23:13.878Z,56
2022-10-30T11:25:48.341Z,57
2022-10-30T11:28:19.576Z,56
2022-10-30T11:30:51.343Z,55
2022-10-30T11:33:22.241Z,56
2022-10-30T11:35:53.047Z,55
2022-10-30T11:38:24.540Z,54
2022-10-30T11:40:55.641Z,54
2022-10-30T11:43:26.674Z,54
2022-10-30T11:45:57.669Z,54
2022-10-30T11:48:28.967Z,54
2022-10-30T11:51:00.230Z,55
2022-10-30T11:53:31.599Z,54
2022-10-30T11:56:02.657Z,54
2022-10-30T11:58:34.152Z,54
2022-10-30T12:01:05.707Z,53
2022-10-30T12:03:35.194Z,54
2022-10-30T12:06:06.374Z,54
2022-10-30T12:08:37.927Z,53
2022-10-30T12:11:08.784Z,54
2022-10-30T12:13:39.906Z,53
2022-10-30T12:16:10.989Z,52
2022-10-30T12:18:41.728Z,52
2022-10-30T12:21:14.030Z,52
2022-10-30T12:23:45.192Z,52
2022-10-30T12:26:16.452Z,51
2022-10-30T12:28:47.491Z,51
2022-10-30T12:31:18.749Z,53
2022-10-30T12:33:50.127Z,52
2022-10-30T12:36:21.337Z,51
2022-10-30T12:38:52.850Z,51
2022-10-30T12:41:23.809Z,51
2022-10-30T12:43:55.031Z,51
2022-10-30T12:46:26.124Z,51
2022-10-30T12:48:57.227Z,52
2022-10-30T12:51:28.756Z,52
2022-10-30T12:53:59.649Z,52
2022-10-30T12:56:30.861Z,53
2022-10-30T12:59:02.485Z,51
2022-10-30T13:01:34.257Z,52
2022-10-30T13:04:05.191Z,53
2022-10-30T13:06:36.108Z,54
2022-10-30T13:09:07.105Z,54
2022-10-30T13:11:38.190Z,55
2022-10-30T13:14:08.824Z,54
2022-10-30T13:16:39.719Z,53
2022-10-30T13:19:10.785Z,54
2022-10-30T13:21:41.718Z,55
2022-10-30T13:24:12.303Z,55
2022-10-30T13:26:44.681Z,55
2022-10-30T13:29:15.420Z,56
2022-10-30T13:31:46.630Z,56
2022-10-30T13:34:23.486Z,56
2022-10-30T13:36:54.109Z,56
2022-10-30T13:39:25.425Z,56
2022-10-30T13:41:56.191Z,56
2022-10-30T13:44:27.152Z,57
2022-10-30T13:46:58.502Z,58
2022-10-30T13:49:29.191Z,58
2022-10-30T13:52:00.131Z,58
2022-10-30T13:54:30.953Z,57
2022-10-30T13:57:02.821Z,58
2022-10-30T13:59:33.965Z,58
2022-10-30T14:02:05.028Z,58
2022-10-30T14:04:36.545Z,59
2022-10-30T14:07:07.146Z,59
2022-10-30T14:09:38.126Z,59
2022-10-30T14:12:09.732Z,59
2022-10-30T14:14:41.036Z,60
2022-10-30T14:17:12.223Z,60
2022-10-30T14:19:43.533Z,60
2022-10-30T14:22:14.832Z,60
2022-10-30T14:24:45.771Z,60
2022-10-30T14:27:17.007Z,61
2022-10-30T14:29:47.952Z,61
2022-10-30T14:32:19.226Z,61
2022-10-30T14:34:50.160Z,61
2022-10-30T14:37:20.994Z,61
2022-10-30T14:39:53.874Z,61
2022-10-30T14:42:24.708Z,61
2022-10-30T14:44:55.635Z,62
2022-10-30T14:47:26.322Z,62
2022-10-30T14:49:58.335Z,62
2022-10-30T14:52:29.322Z,62
2022-10-30T14:55:00.882Z,62
2022-10-30T14:57:32.311Z,62
2022-10-30T15:00:03.247Z,62
2022-10-30T15:02:34.314Z,62
2022-10-30T15:05:07.059Z,62
2022-10-30T15:07:36.443Z,63
2022-10-30T15:10:09.210Z,63
2022-10-30T15:12:40.190Z,63
2022-10-30T15:15:11.402Z,63
2022-10-30T15:17:41.062Z,63
2022-10-30T15:20:12.030Z,63
2022-10-30T15:22:43.662Z,63
2022-10-30T15:25:15.210Z,63
2022-10-30T15:27:46.328Z,63
2022-10-30T15:30:17.733Z,63
2022-10-30T15:32:49.648Z,63
2022-10-30T15:35:20.329Z,63
2022-10-30T15:37:52.084Z,63
2022-10-30T15:40:23.228Z,63
2022-10-30T15:42:54.332Z,64
2022-10-30T15:45:25.145Z,65
2022-10-30T15:47:56.343Z,65
2022-10-30T15:50:27.616Z,65
2022-10-30T15:52:58.841Z,65
2022-10-30T15:55:30.258Z,66
2022-10-30T15:58:03.784Z,66
2022-10-30T16:00:33.195Z,65
2022-10-30T16:03:03.943Z,66
2022-10-30T16:05:36.345Z,66
2022-10-30T16:08:07.826Z,67
2022-10-30T16:10:39.273Z,66
2022-10-30T16:13:10.529Z,66
2022-10-30T16:15:41.848Z,67
2022-10-30T16:18:11.288Z,68
2022-10-30T16:20:43.533Z,68
2022-10-30T16:23:15.059Z,68
2022-10-30T16:25:47.515Z,68
2022-10-30T16:28:17.262Z,68
2022-10-30T16:30:48.239Z,68
2022-10-30T16:33:19.586Z,68
2022-10-30T16:35:53.104Z,68
2022-10-30T16:38:21.986Z,68
2022-10-30T16:40:53.713Z,68
2022-10-30T16:43:24.845Z,68
2022-10-30T16:45:55.404Z,68
2022-10-30T16:48:26.847Z,69
2022-10-30T16:50:57.633Z,69
2022-10-30T16:53:29.792Z,69
2022-10-30T16:56:00.862Z,69
2022-10-30T16:58:32.185Z,70
2022-10-30T17:01:03.345Z,70
2022-10-30T17:03:34.173Z,70
2022-10-30T17:06:04.886Z,71
2022-10-30T17:08:37.209Z,71
2022-10-30T17:11:08.086Z,70
2022-10-30T17:13:39.271Z,70
2022-10-30T17:16:10.822Z,70
2022-10-30T17:18:42.536Z,70
2022-10-30T17:21:15.017Z,70
2022-10-30T17:23:46.017Z,70
2022-10-30T17:26:17.065Z,71
2022-10-30T17:28:48.265Z,71
2022-10-30T17:31:19.122Z,71
2022-10-30T17:33:50.495Z,71
2022-10-30T17:36:21.371Z,70
2022-10-30T17:38:52.645Z,71
2022-10-30T17:41:24.046Z,70
2022-10-30T17:43:55.100Z,71
2022-10-30T17:46:26.802Z,71
2022-10-30T17:48:58.213Z,71
2022-10-30T17:51:29.339Z,71
2022-10-30T17:54:00.576Z,71
2022-10-30T17:56:31.829Z,71
2022-10-30T17:59:03.167Z,71
2022-10-30T18:01:34.164Z,71
2022-10-30T18:04:06.181Z,72
2022-10-30T18:06:37.143Z,72
2022-10-30T18:09:06.517Z,73
2022-10-30T18:11:37.161Z,73
2022-10-30T18:14:08.149Z,74
2022-10-30T18:16:39.360Z,73
2022-10-30T18:19:09.976Z,74
2022-10-30T18:21:41.217Z,74
2022-10-30T18:24:12.263Z,73
2022-10-30T18:26:43.993Z,73
2022-10-30T18:29:15.114Z,73
2022-10-30T18:31:45.833Z,73
2022-10-30T18:34:17.126Z,72
2022-10-30T18:36:48.361Z,72
2022-10-30T18:39:19.275Z,73
2022-10-30T18:41:50.399Z,72
2022-10-30T18:44:24.731Z,72
2022-10-30T18:47:00.149Z,72
2022-10-30T18:49:26.529Z,73
2022-10-30T18:51:57.494Z,73
2022-10-30T18:54:28.869Z,74
2022-10-30T18:56:59.432Z,73
2022-10-30T18:59:30.347Z,72
2022-10-30T19:02:01.257Z,72
2022-10-30T19:04:32.644Z,72
2022-10-30T19:07:04.545Z,72
2022-10-30T19:09:35.604Z,72
2022-10-30T19:12:06.508Z,72
2022-10-30T19:14:37.764Z,72
2022-10-30T19:17:08.721Z,72
2022-10-30T19:19:39.858Z,72
2022-10-30T19:22:11.130Z,72
2022-10-30T19:24:42.029Z,72
2022-10-30T19:27:15.361Z,72
2022-10-30T19:29:47.984Z,72
2022-10-30T19:32:19.225Z,72
2022-10-30T19:34:50.469Z,73
2022-10-30T19:37:21.291Z,73
2022-10-30T19:39:52.445Z,73
2022-10-30T19:42:23.646Z,73
2022-10-30T19:44:54.591Z,73
2022-10-30T19:47:29.569Z,73
2022-10-30T19:50:01.389Z,73
2022-10-30T19:52:32.406Z,73
2022-10-30T19:55:03.281Z,72
2022-10-30T19:57:34.859Z,72
2022-10-30T20:00:05.860Z,72
2022-10-30T20:02:36.932Z,73
2022-10-30T20:05:07.919Z,72
2022-10-30T20:07:38.994Z,72
2022-10-30T20:10:10.111Z,72
2022-10-30T20:12:40.953Z,73
2022-10-30T20:15:11.812Z,73
2022-10-30T20:17:44.654Z,73
2022-10-30T20:20:16.189Z,73
2022-10-30T20:22:47.361Z,73
2022-10-30T20:25:18.288Z,73
2022-10-30T20:27:49.543Z,73
2022-10-30T20:30:20.741Z,72
2022-10-30T20:32:52.425Z,72
2022-10-30T20:35:23.340Z,72
2022-10-30T20:37:54.425Z,72
2022-10-30T20:40:25.898Z,72
2022-10-30T20:42:58.367Z,72
2022-10-30T20:45:28.710Z,72
2022-10-30T20:47:59.856Z,73
2022-10-30T20:50:30.848Z,73
2022-10-30T20:53:01.901Z,73
2022-10-30T20:55:33.272Z,73
2022-10-30T20:58:03.992Z,74
2022-10-30T21:00:36.281Z,74
2022-10-30T21:03:07.348Z,74
2022-10-30T21:05:43.608Z,74
2022-10-30T21:08:10.143Z,74
2022-10-30T21:10:40.732Z,74
2022-10-30T21:13:11.858Z,74
2022-10-30T21:15:43.301Z,74
2022-10-30T21:18:14.948Z,73
2022-10-30T21:20:51.862Z,73
2022-10-30T21:23:23.310Z,73
2022-10-30T21:25:53.949Z,73
2022-10-30T21:28:25.907Z,73
2022-10-30T21:30:56.993Z,73
2022-10-30T21:33:29.323Z,73
2022-10-30T21:36:01.101Z,73
2022-10-30T21:38:31.986Z,73
2022-10-30T21:41:05.088Z,73
2022-10-30T21:43:36.393Z,73
2022-10-30T21:46:07.924Z,73
2022-10-30T21:48:38.840Z,73
2022-10-30T21:51:09.658Z,73
2022-10-30T21:53:41.148Z,73
2022-10-30T21:56:12.135Z,73
2022-10-30T21:58:43.521Z,73
2022-10-30T22:01:15.286Z,73
2022-10-30T22:03:46.382Z,73
2022-10-30T22:06:17.513Z,73
2022-10-30T22:08:48.924Z,73
2022-10-30T22:11:20.690Z,73
2022-10-30T22:13:51.934Z,73
2022-10-30T22:16:23.261Z,73
2022-10-30T22:18:54.510Z,73
2022-10-30T22:21:26.781Z,74
2022-10-30T22:23:57.709Z,74
2022-10-30T22:26:29.292Z,73
2022-10-30T22:29:00.388Z,73
2022-10-30T22:31:31.742Z,73
2022-10-30T22:34:02.749Z,73
2022-10-30T22:36:34.299Z,73
2022-10-30T22:39:13.444Z,73
2022-10-30T22:41:52.570Z,73
2022-10-30T22:44:23.108Z,73
2022-10-30T22:46:54.456Z,73
2022-10-30T22:49:25.609Z,74
2022-10-30T22:51:56.087Z,74
2022-10-30T22:54:26.866Z,74
2022-10-30T22:56:57.745Z,75
2022-10-30T22:59:28.951Z,75
2022-10-30T23:02:00.765Z,75
2022-10-30T23:04:31.092Z,75
2022-10-30T23:07:01.385Z,75
2022-10-30T23:09:32.233Z,75
2022-10-30T23:12:03.567Z,76
2022-10-30T23:14:33.852Z,76
2022-10-30T23:17:04.321Z,77
2022-10-30T23:19:35.681Z,77
2022-10-30T23:22:07.591Z,77
2022-10-30T23:24:38.813Z,77
2022-10-30T23:27:09.787Z,76
2022-10-30T23:29:40.735Z,76
2022-10-30T23:32:10.831Z,74
2022-10-30T23:34:40.945Z,73
2022-10-30T23:37:11.775Z,73
2022-10-30T23:39:42.287Z,73
2022-10-30T23:42:13.516Z,73
2022-10-30T23:44:44.854Z,74
2022-10-30T23:47:15.651Z,75
2022-10-30T23:49:46.798Z,75
2022-10-30T23:52:16.982Z,75
2022-10-30T23:54:48.068Z,75
2022-10-30T23:57:18.639Z,76
2022-10-30T23:59:49.411Z,77
